PWSweather.com
Personal Weather Stations
Station Observations
BZA01
Southern Palatinate, Bad BergzabernDE 76887

Southern PalatinateBad BergzabernDE 76887

Lat: 49.096, Lon: 8

Elevation: 640

Station Type: Davis VP2+

Latest ConditionsUpdated 4:57:03 AM GMT+01:01 Wednesday, Aug 21, 2019
Currently Today's Max Today's Min Today's Average
Temperature 51.8°F11.0°C 55.2°F12.9°C 51.8°F11.0°C 53.7°F12.1°C
Dew Point 48.9°F9.4°C 50.9°F10.5°C 48.9°F9.4°C 50.3°F10.2°C
Winds Calm Calm 2.9 mph -4.7 kmh - - 1.4 mph 2.3 kmh
Wind Gusts 0.9 mph1.4 kmh 4.0 mph6.4 kmh - -
Humidity 90% 90% 84% 88%
Pressure 30.33 in1027.1 mb 30.34 in1027.4 mb 30.31 in1026.4 mb -
Hour Temp Dew Point Humidity Winds Wind Gusts Pressure Precip Precip Rate Daily Precip Total
04:57 AM 51.8°F11.0°C 48.9°F9.4°C 90% Calm Calm 0.9 mph1.4 kmh 30.33 in1027.1 mb - 0.00 in0.0 mm 0.00 in0.0 mm
04:52 AM 52.0°F11.1°C 49.1°F9.5°C 90% 0.9 mph WSW1.4 kmh WSW 0.9 mph1.4 kmh 30.34 in1027.4 mb - 0.00 in0.0 mm 0.00 in0.0 mm
04:47 AM 52.2°F11.2°C 49.3°F9.6°C 90% 0.9 mph WSW1.4 kmh WSW 0.9 mph1.4 kmh 30.33 in1027.1 mb - 0.00 in0.0 mm 0.00 in0.0 mm
04:42 AM 52.3°F11.3°C 49.5°F9.7°C 90% 2.0 mph WSW3.2 kmh WSW 0.9 mph1.4 kmh 30.33 in1027.1 mb - 0.00 in0.0 mm 0.00 in0.0 mm
04:37 AM 52.5°F11.4°C 49.6°F9.8°C 90% 2.9 mph WSW4.7 kmh WSW 2.0 mph3.2 kmh 30.33 in1027.1 mb - 0.00 in0.0 mm 0.00 in0.0 mm
04:32 AM 52.7°F11.5°C 49.8°F9.9°C 90% 2.9 mph W4.7 kmh W 2.9 mph4.7 kmh 30.33 in1027.1 mb - 0.00 in0.0 mm 0.00 in0.0 mm
04:27 AM 52.9°F11.6°C 50.0°F10.0°C 90% 2.0 mph W3.2 kmh W 2.9 mph4.7 kmh 30.33 in1027.1 mb - 0.00 in0.0 mm 0.00 in0.0 mm
04:22 AM 53.1°F11.7°C 50.2°F10.1°C 90% 2.0 mph W3.2 kmh W 0.9 mph1.4 kmh 30.33 in1027.1 mb - 0.00 in0.0 mm 0.00 in0.0 mm
04:17 AM 53.1°F11.7°C 50.2°F10.1°C 90% 2.0 mph W3.2 kmh W 2.0 mph3.2 kmh 30.33 in1027.1 mb - 0.00 in0.0 mm 0.00 in0.0 mm
04:12 AM 53.2°F11.8°C 50.4°F10.2°C 90% 2.9 mph W4.7 kmh W 0.9 mph1.4 kmh 30.32 in1026.8 mb - 0.00 in0.0 mm 0.00 in0.0 mm
04:07 AM 53.2°F11.8°C 50.4°F10.2°C 90% 2.9 mph W4.7 kmh W 4.0 mph6.4 kmh 30.32 in1026.8 mb - 0.00 in0.0 mm 0.00 in0.0 mm
04:02 AM 53.2°F11.8°C 50.4°F10.2°C 90% 2.9 mph W4.7 kmh W 2.0 mph3.2 kmh 30.32 in1026.8 mb - 0.00 in0.0 mm 0.00 in0.0 mm
03:57 AM 53.2°F11.8°C 50.4°F10.2°C 90% 2.9 mph W4.7 kmh W 4.0 mph6.4 kmh 30.32 in1026.8 mb - 0.00 in0.0 mm 0.00 in0.0 mm
03:52 AM 53.1°F11.7°C 50.2°F10.1°C 90% 2.0 mph W3.2 kmh W 2.0 mph3.2 kmh 30.32 in1026.8 mb - 0.00 in0.0 mm 0.00 in0.0 mm
03:47 AM 53.1°F11.7°C 50.2°F10.1°C 90% 0.9 mph W1.4 kmh W 0.9 mph1.4 kmh 30.32 in1026.8 mb - 0.00 in0.0 mm 0.00 in0.0 mm
03:42 AM 52.9°F11.6°C 49.6°F9.8°C 89% 0.9 mph W1.4 kmh W 2.0 mph3.2 kmh 30.32 in1026.8 mb - 0.00 in0.0 mm 0.00 in0.0 mm
03:37 AM 53.1°F11.7°C 49.6°F9.8°C 88% 0.9 mph W1.4 kmh W 0.9 mph1.4 kmh 30.33 in1027.1 mb - 0.00 in0.0 mm 0.00 in0.0 mm
03:32 AM 53.4°F11.9°C 50.0°F10.0°C 88% Calm Calm -- 30.33 in1027.1 mb - 0.00 in0.0 mm 0.00 in0.0 mm
03:27 AM 53.8°F12.1°C 50.4°F10.2°C 88% 0.9 mph W1.4 kmh W 0.9 mph1.4 kmh 30.33 in1027.1 mb - 0.00 in0.0 mm 0.00 in0.0 mm
03:22 AM 54.0°F12.2°C 50.5°F10.3°C 88% 2.0 mph W3.2 kmh W -- 30.33 in1027.1 mb - 0.00 in0.0 mm 0.00 in0.0 mm
03:17 AM 54.0°F12.2°C 50.5°F10.3°C 88% 2.9 mph W4.7 kmh W 2.0 mph3.2 kmh 30.32 in1026.8 mb - 0.00 in0.0 mm 0.00 in0.0 mm
03:12 AM 54.1°F12.3°C 50.7°F10.4°C 88% 2.9 mph W4.7 kmh W 2.0 mph3.2 kmh 30.32 in1026.8 mb - 0.00 in0.0 mm 0.00 in0.0 mm
03:07 AM 54.1°F12.3°C 50.7°F10.4°C 88% 2.9 mph W4.7 kmh W 2.0 mph3.2 kmh 30.32 in1026.8 mb - 0.00 in0.0 mm 0.00 in0.0 mm
03:02 AM 54.1°F12.3°C 50.9°F10.5°C 89% 2.9 mph W4.7 kmh W 4.0 mph6.4 kmh 30.32 in1026.8 mb - 0.00 in0.0 mm 0.00 in0.0 mm
02:57 AM 54.1°F12.3°C 50.9°F10.5°C 89% 2.9 mph W4.7 kmh W 2.9 mph4.7 kmh 30.32 in1026.8 mb - 0.00 in0.0 mm 0.00 in0.0 mm
02:52 AM 54.0°F12.2°C 50.7°F10.4°C 89% 2.0 mph W3.2 kmh W 2.0 mph3.2 kmh 30.32 in1026.8 mb - 0.00 in0.0 mm 0.00 in0.0 mm
02:47 AM 54.0°F12.2°C 50.7°F10.4°C 89% 2.0 mph W3.2 kmh W 2.9 mph4.7 kmh 30.32 in1026.8 mb - 0.00 in0.0 mm 0.00 in0.0 mm
02:42 AM 54.0°F12.2°C 50.7°F10.4°C 89% 2.0 mph WSW3.2 kmh WSW 0.9 mph1.4 kmh 30.32 in1026.8 mb - 0.00 in0.0 mm 0.00 in0.0 mm
02:37 AM 54.0°F12.2°C 50.7°F10.4°C 89% 2.0 mph WSW3.2 kmh WSW 0.9 mph1.4 kmh 30.32 in1026.8 mb - 0.00 in0.0 mm 0.00 in0.0 mm
02:32 AM 54.0°F12.2°C 50.7°F10.4°C 89% 2.0 mph WSW3.2 kmh WSW -- 30.32 in1026.8 mb - 0.00 in0.0 mm 0.00 in0.0 mm
02:27 AM 54.0°F12.2°C 50.7°F10.4°C 89% 2.0 mph WSW3.2 kmh WSW 2.0 mph3.2 kmh 30.32 in1026.8 mb - 0.00 in0.0 mm 0.00 in0.0 mm
02:22 AM 54.0°F12.2°C 50.7°F10.4°C 89% 2.0 mph WSW3.2 kmh WSW 2.0 mph3.2 kmh 30.32 in1026.8 mb - 0.00 in0.0 mm 0.00 in0.0 mm
02:17 AM 53.8°F12.1°C 50.5°F10.3°C 89% 2.0 mph WSW3.2 kmh WSW 2.9 mph4.7 kmh 30.32 in1026.8 mb - 0.00 in0.0 mm 0.00 in0.0 mm
02:12 AM 53.6°F12.0°C 50.4°F10.2°C 89% 2.0 mph WSW3.2 kmh WSW 2.0 mph3.2 kmh 30.32 in1026.8 mb - 0.00 in0.0 mm 0.00 in0.0 mm
02:07 AM 53.4°F11.9°C 50.5°F10.3°C 90% 2.0 mph WSW3.2 kmh WSW 2.0 mph3.2 kmh 30.32 in1026.8 mb - 0.00 in0.0 mm 0.00 in0.0 mm
02:02 AM 53.4°F11.9°C 50.2°F10.1°C 89% 0.9 mph WSW1.4 kmh WSW 2.0 mph3.2 kmh 30.32 in1026.8 mb - 0.00 in0.0 mm 0.00 in0.0 mm
01:57 AM 53.4°F11.9°C 50.2°F10.1°C 89% 0.9 mph WSW1.4 kmh WSW 0.9 mph1.4 kmh 30.32 in1026.8 mb - 0.00 in0.0 mm 0.00 in0.0 mm
01:52 AM 53.4°F11.9°C 50.2°F10.1°C 89% 0.9 mph WSW1.4 kmh WSW 0.9 mph1.4 kmh 30.32 in1026.8 mb - 0.00 in0.0 mm 0.00 in0.0 mm
01:47 AM 53.4°F11.9°C 50.2°F10.1°C 89% 0.9 mph WSW1.4 kmh WSW 0.9 mph1.4 kmh 30.32 in1026.8 mb - 0.00 in0.0 mm 0.00 in0.0 mm
01:42 AM 53.4°F11.9°C 50.2°F10.1°C 89% 0.9 mph WSW1.4 kmh WSW -- 30.32 in1026.8 mb - 0.00 in0.0 mm 0.00 in0.0 mm
01:37 AM 53.4°F11.9°C 50.0°F10.0°C 88% 0.9 mph WSW1.4 kmh WSW 0.9 mph1.4 kmh 30.32 in1026.8 mb - 0.00 in0.0 mm 0.00 in0.0 mm
01:32 AM 53.6°F12.0°C 50.2°F10.1°C 88% 0.9 mph WSW1.4 kmh WSW -- 30.32 in1026.8 mb - 0.00 in0.0 mm 0.00 in0.0 mm
01:27 AM 53.8°F12.1°C 50.4°F10.2°C 88% 0.9 mph WSW1.4 kmh WSW 0.9 mph1.4 kmh 30.32 in1026.8 mb - 0.00 in0.0 mm 0.00 in0.0 mm
01:22 AM 53.8°F12.1°C 50.4°F10.2°C 88% 0.9 mph WSW1.4 kmh WSW 0.9 mph1.4 kmh 30.32 in1026.8 mb - 0.00 in0.0 mm 0.00 in0.0 mm
01:17 AM 53.8°F12.1°C 50.4°F10.2°C 88% 0.9 mph WSW1.4 kmh WSW 0.9 mph1.4 kmh 30.32 in1026.8 mb - 0.00 in0.0 mm 0.00 in0.0 mm
01:12 AM 54.0°F12.2°C 50.2°F10.1°C 87% 0.9 mph WSW1.4 kmh WSW 0.9 mph1.4 kmh 30.32 in1026.8 mb - 0.00 in0.0 mm 0.00 in0.0 mm
01:07 AM 54.0°F12.2°C 50.2°F10.1°C 87% 0.9 mph WSW1.4 kmh WSW 0.9 mph1.4 kmh 30.32 in1026.8 mb - 0.00 in0.0 mm 0.00 in0.0 mm
01:02 AM 54.1°F12.3°C 50.4°F10.2°C 87% Calm Calm -- 30.32 in1026.8 mb - 0.00 in0.0 mm 0.00 in0.0 mm
12:57 AM 54.1°F12.3°C 50.4°F10.2°C 87% 0.9 mph WSW1.4 kmh WSW -- 30.32 in1026.8 mb - 0.00 in0.0 mm 0.00 in0.0 mm
12:52 AM 54.1°F12.3°C 50.0°F10.0°C 86% 0.9 mph WSW1.4 kmh WSW 0.9 mph1.4 kmh 30.31 in1026.4 mb - 0.00 in0.0 mm 0.00 in0.0 mm
12:47 AM 54.3°F12.4°C 50.2°F10.1°C 86% 0.9 mph WSW1.4 kmh WSW 2.0 mph3.2 kmh 30.31 in1026.4 mb - 0.00 in0.0 mm 0.00 in0.0 mm
12:42 AM 54.3°F12.4°C 50.2°F10.1°C 86% Calm Calm 0.9 mph1.4 kmh 30.31 in1026.4 mb - 0.00 in0.0 mm 0.00 in0.0 mm
12:37 AM 54.7°F12.6°C 50.5°F10.3°C 86% Calm Calm -- 30.31 in1026.4 mb - 0.00 in0.0 mm 0.00 in0.0 mm
12:32 AM 54.7°F12.6°C 50.2°F10.1°C 85% Calm Calm -- 30.32 in1026.8 mb - 0.00 in0.0 mm 0.00 in0.0 mm
12:27 AM 54.9°F12.7°C 50.4°F10.2°C 85% Calm Calm -- 30.32 in1026.8 mb - 0.00 in0.0 mm 0.00 in0.0 mm
12:22 AM 54.9°F12.7°C 50.4°F10.2°C 85% Calm Calm -- 30.32 in1026.8 mb - 0.00 in0.0 mm 0.00 in0.0 mm
12:17 AM 55.0°F12.8°C 50.5°F10.3°C 85% Calm Calm -- 30.31 in1026.4 mb - 0.00 in0.0 mm 0.00 in0.0 mm
12:12 AM 55.0°F12.8°C 50.5°F10.3°C 85% Calm Calm -- 30.31 in1026.4 mb - 0.00 in0.0 mm 0.00 in0.0 mm
12:07 AM 55.2°F12.9°C 50.7°F10.4°C 85% Calm Calm -- 30.31 in1026.4 mb - 0.00 in0.0 mm 0.00 in0.0 mm
12:02 AM 55.2°F12.9°C 50.5°F10.3°C 84% 0.9 mph WSW1.4 kmh WSW -- 30.31 in1026.4 mb - 0.00 in0.0 mm 0.00 in0.0 mm